sensor_id;sensor_type;location;lat;lon;timestamp;P1;durP1;ratioP1;P2;durP2;ratioP2
35743;SDS011;21867;52.012;4.324;2023-03-16T00:00:03;4.87;;;3.80;;
35743;SDS011;21867;52.012;4.324;2023-03-16T00:02:31;4.30;;;3.90;;
35743;SDS011;21867;52.012;4.324;2023-03-16T00:04:58;6.60;;;4.23;;
35743;SDS011;21867;52.012;4.324;2023-03-16T00:07:25;6.23;;;4.10;;
35743;SDS011;21867;52.012;4.324;2023-03-16T00:09:53;3.90;;;3.60;;
35743;SDS011;21867;52.012;4.324;2023-03-16T00:12:21;4.00;;;3.60;;
35743;SDS011;21867;52.012;4.324;2023-03-16T00:14:49;4.67;;;4.27;;
35743;SDS011;21867;52.012;4.324;2023-03-16T00:17:17;5.90;;;4.30;;
35743;SDS011;21867;52.012;4.324;2023-03-16T00:19:51;4.13;;;3.73;;
35743;SDS011;21867;52.012;4.324;2023-03-16T00:22:19;7.60;;;4.30;;
35743;SDS011;21867;52.012;4.324;2023-03-16T00:24:46;4.30;;;3.53;;
35743;SDS011;21867;52.012;4.324;2023-03-16T00:27:13;4.13;;;3.60;;
35743;SDS011;21867;52.012;4.324;2023-03-16T00:32:56;4.83;;;2.80;;
35743;SDS011;21867;52.012;4.324;2023-03-16T00:35:24;4.70;;;3.87;;
35743;SDS011;21867;52.012;4.324;2023-03-16T00:37:51;8.70;;;4.10;;
35743;SDS011;21867;52.012;4.324;2023-03-16T00:40:18;5.17;;;4.07;;
35743;SDS011;21867;52.012;4.324;2023-03-16T00:42:45;5.67;;;5.17;;
35743;SDS011;21867;52.012;4.324;2023-03-16T00:45:13;5.20;;;4.03;;
35743;SDS011;21867;52.012;4.324;2023-03-16T00:47:46;4.70;;;4.10;;
35743;SDS011;21867;52.012;4.324;2023-03-16T00:50:15;5.17;;;4.60;;
35743;SDS011;21867;52.012;4.324;2023-03-16T00:52:42;5.93;;;3.93;;
35743;SDS011;21867;52.012;4.324;2023-03-16T00:55:09;3.80;;;3.50;;
35743;SDS011;21867;52.012;4.324;2023-03-16T00:57:46;6.37;;;3.80;;
35743;SDS011;21867;52.012;4.324;2023-03-16T01:00:24;6.60;;;3.67;;
35743;SDS011;21867;52.012;4.324;2023-03-16T01:03:07;5.83;;;4.40;;
35743;SDS011;21867;52.012;4.324;2023-03-16T01:05:39;8.30;;;3.97;;
35743;SDS011;21867;52.012;4.324;2023-03-16T01:08:07;5.27;;;4.03;;
35743;SDS011;21867;52.012;4.324;2023-03-16T01:10:34;5.43;;;4.37;;
35743;SDS011;21867;52.012;4.324;2023-03-16T01:13:02;6.93;;;4.20;;
35743;SDS011;21867;52.012;4.324;2023-03-16T01:15:29;4.83;;;3.60;;
35743;SDS011;21867;52.012;4.324;2023-03-16T01:20:26;4.37;;;3.90;;
35743;SDS011;21867;52.012;4.324;2023-03-16T01:22:56;5.00;;;4.50;;
35743;SDS011;21867;52.012;4.324;2023-03-16T01:25:23;6.33;;;4.00;;
35743;SDS011;21867;52.012;4.324;2023-03-16T01:27:50;4.90;;;4.40;;
35743;SDS011;21867;52.012;4.324;2023-03-16T01:30:18;7.57;;;4.80;;
35743;SDS011;21867;52.012;4.324;2023-03-16T01:32:54;5.67;;;4.40;;
35743;SDS011;21867;52.012;4.324;2023-03-16T01:38:21;5.70;;;4.63;;
35743;SDS011;21867;52.012;4.324;2023-03-16T01:40:48;5.43;;;4.83;;
35743;SDS011;21867;52.012;4.324;2023-03-16T01:43:16;8.17;;;5.50;;
35743;SDS011;21867;52.012;4.324;2023-03-16T01:48:44;6.77;;;5.03;;
35743;SDS011;21867;52.012;4.324;2023-03-16T01:51:18;4.07;;;3.57;;
35743;SDS011;21867;52.012;4.324;2023-03-16T01:53:49;6.83;;;4.57;;
35743;SDS011;21867;52.012;4.324;2023-03-16T01:56:18;7.37;;;5.03;;
35743;SDS011;21867;52.012;4.324;2023-03-16T01:58:46;6.40;;;4.97;;
35743;SDS011;21867;52.012;4.324;2023-03-16T02:01:13;6.30;;;4.20;;
35743;SDS011;21867;52.012;4.324;2023-03-16T02:03:41;5.30;;;4.70;;
35743;SDS011;21867;52.012;4.324;2023-03-16T02:06:18;9.27;;;5.07;;
35743;SDS011;21867;52.012;4.324;2023-03-16T02:08:52;7.90;;;5.30;;
35743;SDS011;21867;52.012;4.324;2023-03-16T02:11:20;6.70;;;4.80;;
35743;SDS011;21867;52.012;4.324;2023-03-16T02:14:15;6.30;;;4.77;;
35743;SDS011;21867;52.012;4.324;2023-03-16T02:17:06;6.07;;;4.97;;
35743;SDS011;21867;52.012;4.324;2023-03-16T02:19:35;8.57;;;4.20;;
35743;SDS011;21867;52.012;4.324;2023-03-16T02:22:05;6.17;;;4.43;;
35743;SDS011;21867;52.012;4.324;2023-03-16T02:24:34;6.70;;;4.37;;
35743;SDS011;21867;52.012;4.324;2023-03-16T02:27:03;3.93;;;3.50;;
35743;SDS011;21867;52.012;4.324;2023-03-16T02:32:26;5.30;;;4.80;;
35743;SDS011;21867;52.012;4.324;2023-03-16T02:34:54;5.47;;;4.97;;
35743;SDS011;21867;52.012;4.324;2023-03-16T02:37:22;7.13;;;4.20;;
35743;SDS011;21867;52.012;4.324;2023-03-16T02:39:49;5.77;;;4.80;;
35743;SDS011;21867;52.012;4.324;2023-03-16T02:42:19;5.17;;;4.53;;
35743;SDS011;21867;52.012;4.324;2023-03-16T02:44:49;4.40;;;4.00;;
35743;SDS011;21867;52.012;4.324;2023-03-16T02:47:42;6.03;;;4.90;;
35743;SDS011;21867;52.012;4.324;2023-03-16T02:53:05;7.13;;;4.87;;
35743;SDS011;21867;52.012;4.324;2023-03-16T02:55:34;4.63;;;4.20;;
35743;SDS011;21867;52.012;4.324;2023-03-16T02:58:01;6.47;;;4.40;;
35743;SDS011;21867;52.012;4.324;2023-03-16T03:00:28;4.00;;;3.70;;
35743;SDS011;21867;52.012;4.324;2023-03-16T03:02:57;7.87;;;4.20;;
35743;SDS011;21867;52.012;4.324;2023-03-16T03:05:24;8.07;;;5.03;;
35743;SDS011;21867;52.012;4.324;2023-03-16T03:07:52;4.97;;;4.23;;
35743;SDS011;21867;52.012;4.324;2023-03-16T03:10:19;11.33;;;5.40;;
35743;SDS011;21867;52.012;4.324;2023-03-16T03:12:47;5.83;;;4.27;;
35743;SDS011;21867;52.012;4.324;2023-03-16T03:15:15;6.77;;;3.20;;
35743;SDS011;21867;52.012;4.324;2023-03-16T03:21:49;6.57;;;3.93;;
35743;SDS011;21867;52.012;4.324;2023-03-16T03:24:16;5.70;;;4.80;;
35743;SDS011;21867;52.012;4.324;2023-03-16T03:26:45;7.67;;;4.63;;
35743;SDS011;21867;52.012;4.324;2023-03-16T03:29:18;11.17;;;4.73;;
35743;SDS011;21867;52.012;4.324;2023-03-16T03:31:45;5.47;;;4.73;;
35743;SDS011;21867;52.012;4.324;2023-03-16T03:34:12;8.17;;;4.80;;
35743;SDS011;21867;52.012;4.324;2023-03-16T03:36:46;5.33;;;4.47;;
35743;SDS011;21867;52.012;4.324;2023-03-16T03:39:14;6.67;;;4.30;;
35743;SDS011;21867;52.012;4.324;2023-03-16T03:41:42;6.10;;;4.90;;
35743;SDS011;21867;52.012;4.324;2023-03-16T03:44:10;4.00;;;3.70;;
35743;SDS011;21867;52.012;4.324;2023-03-16T03:50:28;6.93;;;4.47;;
35743;SDS011;21867;52.012;4.324;2023-03-16T03:53:19;8.07;;;4.73;;
35743;SDS011;21867;52.012;4.324;2023-03-16T03:56:11;8.47;;;4.70;;
35743;SDS011;21867;52.012;4.324;2023-03-16T03:58:38;8.67;;;4.87;;
35743;SDS011;21867;52.012;4.324;2023-03-16T04:01:06;4.93;;;4.10;;
35743;SDS011;21867;52.012;4.324;2023-03-16T04:03:34;5.97;;;4.20;;
35743;SDS011;21867;52.012;4.324;2023-03-16T04:06:20;9.17;;;4.77;;
35743;SDS011;21867;52.012;4.324;2023-03-16T04:08:48;7.17;;;4.70;;
35743;SDS011;21867;52.012;4.324;2023-03-16T04:11:20;6.17;;;4.37;;
35743;SDS011;21867;52.012;4.324;2023-03-16T04:13:49;5.93;;;3.87;;
35743;SDS011;21867;52.012;4.324;2023-03-16T04:16:17;5.87;;;4.17;;
35743;SDS011;21867;52.012;4.324;2023-03-16T04:21:48;5.33;;;4.00;;
35743;SDS011;21867;52.012;4.324;2023-03-16T04:24:17;4.83;;;4.10;;
35743;SDS011;21867;52.012;4.324;2023-03-16T04:26:46;9.83;;;3.60;;
35743;SDS011;21867;52.012;4.324;2023-03-16T04:29:14;4.83;;;4.33;;
35743;SDS011;21867;52.012;4.324;2023-03-16T04:31:41;6.43;;;3.70;;
35743;SDS011;21867;52.012;4.324;2023-03-16T04:34:09;5.43;;;3.80;;
35743;SDS011;21867;52.012;4.324;2023-03-16T04:36:37;4.00;;;3.60;;
35743;SDS011;21867;52.012;4.324;2023-03-16T04:39:05;6.10;;;3.93;;
35743;SDS011;21867;52.012;4.324;2023-03-16T04:41:32;6.30;;;3.67;;
35743;SDS011;21867;52.012;4.324;2023-03-16T04:44:16;8.00;;;4.00;;
35743;SDS011;21867;52.012;4.324;2023-03-16T04:46:43;4.83;;;3.53;;
35743;SDS011;21867;52.012;4.324;2023-03-16T04:49:11;6.90;;;3.90;;
35743;SDS011;21867;52.012;4.324;2023-03-16T04:51:42;4.10;;;3.70;;
35743;SDS011;21867;52.012;4.324;2023-03-16T04:54:13;6.53;;;3.40;;
35743;SDS011;21867;52.012;4.324;2023-03-16T04:56:42;4.17;;;3.70;;
35743;SDS011;21867;52.012;4.324;2023-03-16T04:59:24;6.80;;;3.67;;
35743;SDS011;21867;52.012;4.324;2023-03-16T05:02:14;6.20;;;3.67;;
35743;SDS011;21867;52.012;4.324;2023-03-16T05:04:42;4.93;;;3.23;;
35743;SDS011;21867;52.012;4.324;2023-03-16T05:07:10;4.60;;;3.10;;
35743;SDS011;21867;52.012;4.324;2023-03-16T05:09:41;6.27;;;3.87;;
35743;SDS011;21867;52.012;4.324;2023-03-16T05:12:09;4.50;;;3.90;;
35743;SDS011;21867;52.012;4.324;2023-03-16T05:14:38;3.10;;;2.80;;
35743;SDS011;21867;52.012;4.324;2023-03-16T05:17:38;5.80;;;3.50;;
35743;SDS011;21867;52.012;4.324;2023-03-16T05:20:06;6.17;;;3.43;;
35743;SDS011;21867;52.012;4.324;2023-03-16T05:22:38;5.20;;;3.33;;
35743;SDS011;21867;52.012;4.324;2023-03-16T05:25:12;5.33;;;3.20;;
35743;SDS011;21867;52.012;4.324;2023-03-16T05:27:43;4.97;;;2.90;;
35743;SDS011;21867;52.012;4.324;2023-03-16T05:30:17;3.73;;;3.17;;
35743;SDS011;21867;52.012;4.324;2023-03-16T05:32:45;5.10;;;3.17;;
35743;SDS011;21867;52.012;4.324;2023-03-16T05:35:13;3.87;;;2.70;;
35743;SDS011;21867;52.012;4.324;2023-03-16T05:37:41;4.40;;;2.70;;
35743;SDS011;21867;52.012;4.324;2023-03-16T05:40:13;3.47;;;3.17;;
35743;SDS011;21867;52.012;4.324;2023-03-16T05:42:40;4.90;;;2.97;;
35743;SDS011;21867;52.012;4.324;2023-03-16T05:45:08;6.87;;;3.63;;
35743;SDS011;21867;52.012;4.324;2023-03-16T05:47:45;6.43;;;2.53;;
35743;SDS011;21867;52.012;4.324;2023-03-16T05:50:13;5.33;;;3.17;;
35743;SDS011;21867;52.012;4.324;2023-03-16T05:52:42;3.80;;;2.57;;
35743;SDS011;21867;52.012;4.324;2023-03-16T05:55:16;3.97;;;2.67;;
35743;SDS011;21867;52.012;4.324;2023-03-16T05:57:49;4.13;;;2.93;;
35743;SDS011;21867;52.012;4.324;2023-03-16T06:00:16;6.50;;;2.80;;
35743;SDS011;21867;52.012;4.324;2023-03-16T06:02:59;3.53;;;2.57;;
35743;SDS011;21867;52.012;4.324;2023-03-16T06:05:43;2.90;;;2.47;;
35743;SDS011;21867;52.012;4.324;2023-03-16T06:08:10;7.53;;;2.87;;
35743;SDS011;21867;52.012;4.324;2023-03-16T06:10:40;3.57;;;2.90;;
35743;SDS011;21867;52.012;4.324;2023-03-16T06:13:08;3.57;;;2.60;;
35743;SDS011;21867;52.012;4.324;2023-03-16T06:15:35;3.90;;;2.83;;
35743;SDS011;21867;52.012;4.324;2023-03-16T06:18:04;4.63;;;3.30;;
35743;SDS011;21867;52.012;4.324;2023-03-16T06:20:35;2.97;;;2.73;;
35743;SDS011;21867;52.012;4.324;2023-03-16T06:23:02;9.43;;;3.53;;
35743;SDS011;21867;52.012;4.324;2023-03-16T06:25:30;4.37;;;2.73;;
35743;SDS011;21867;52.012;4.324;2023-03-16T06:27:57;3.73;;;2.80;;
35743;SDS011;21867;52.012;4.324;2023-03-16T06:30:34;2.77;;;2.50;;
35743;SDS011;21867;52.012;4.324;2023-03-16T06:33:21;4.07;;;2.80;;
35743;SDS011;21867;52.012;4.324;2023-03-16T06:36:01;3.00;;;2.63;;
35743;SDS011;21867;52.012;4.324;2023-03-16T06:38:36;4.53;;;2.40;;
35743;SDS011;21867;52.012;4.324;2023-03-16T06:41:08;2.73;;;2.47;;
35743;SDS011;21867;52.012;4.324;2023-03-16T06:43:36;5.67;;;3.07;;
35743;SDS011;21867;52.012;4.324;2023-03-16T06:46:03;3.87;;;2.37;;
35743;SDS011;21867;52.012;4.324;2023-03-16T06:48:32;4.43;;;2.67;;
35743;SDS011;21867;52.012;4.324;2023-03-16T06:50:59;2.77;;;2.37;;
35743;SDS011;21867;52.012;4.324;2023-03-16T06:53:28;2.23;;;1.97;;
35743;SDS011;21867;52.012;4.324;2023-03-16T06:55:56;2.90;;;2.70;;
35743;SDS011;21867;52.012;4.324;2023-03-16T06:58:25;5.13;;;3.03;;
35743;SDS011;21867;52.012;4.324;2023-03-16T07:00:53;4.90;;;2.87;;
35743;SDS011;21867;52.012;4.324;2023-03-16T07:03:20;3.67;;;2.60;;
35743;SDS011;21867;52.012;4.324;2023-03-16T07:06:10;6.60;;;2.67;;
35743;SDS011;21867;52.012;4.324;2023-03-16T07:11:38;3.13;;;2.73;;
35743;SDS011;21867;52.012;4.324;2023-03-16T07:14:06;3.07;;;2.67;;
35743;SDS011;21867;52.012;4.324;2023-03-16T07:16:34;4.73;;;2.90;;
35743;SDS011;21867;52.012;4.324;2023-03-16T07:19:04;3.87;;;3.00;;
35743;SDS011;21867;52.012;4.324;2023-03-16T07:21:33;5.97;;;2.97;;
35743;SDS011;21867;52.012;4.324;2023-03-16T07:24:01;3.20;;;2.40;;
35743;SDS011;21867;52.012;4.324;2023-03-16T07:26:34;5.93;;;2.73;;
35743;SDS011;21867;52.012;4.324;2023-03-16T07:29:02;2.70;;;2.37;;
35743;SDS011;21867;52.012;4.324;2023-03-16T07:31:29;3.30;;;2.90;;
35743;SDS011;21867;52.012;4.324;2023-03-16T07:33:58;3.03;;;2.77;;
35743;SDS011;21867;52.012;4.324;2023-03-16T07:36:36;4.07;;;2.80;;
35743;SDS011;21867;52.012;4.324;2023-03-16T07:39:03;4.87;;;2.50;;
35743;SDS011;21867;52.012;4.324;2023-03-16T07:41:32;2.93;;;2.63;;
35743;SDS011;21867;52.012;4.324;2023-03-16T07:44:27;5.87;;;3.10;;
35743;SDS011;21867;52.012;4.324;2023-03-16T07:46:55;6.07;;;2.53;;
35743;SDS011;21867;52.012;4.324;2023-03-16T07:49:25;3.90;;;2.87;;
35743;SDS011;21867;52.012;4.324;2023-03-16T07:51:55;5.17;;;3.07;;
35743;SDS011;21867;52.012;4.324;2023-03-16T07:54:35;7.40;;;3.10;;
35743;SDS011;21867;52.012;4.324;2023-03-16T07:57:04;4.50;;;2.33;;
35743;SDS011;21867;52.012;4.324;2023-03-16T07:59:36;2.40;;;2.20;;
35743;SDS011;21867;52.012;4.324;2023-03-16T08:02:04;2.83;;;2.47;;
35743;SDS011;21867;52.012;4.324;2023-03-16T08:04:32;5.93;;;3.37;;
35743;SDS011;21867;52.012;4.324;2023-03-16T08:10:06;4.47;;;3.07;;
35743;SDS011;21867;52.012;4.324;2023-03-16T08:12:49;4.37;;;2.80;;
35743;SDS011;21867;52.012;4.324;2023-03-16T08:15:17;4.63;;;3.40;;
35743;SDS011;21867;52.012;4.324;2023-03-16T08:17:46;3.13;;;2.30;;
35743;SDS011;21867;52.012;4.324;2023-03-16T08:20:19;5.63;;;2.60;;
35743;SDS011;21867;52.012;4.324;2023-03-16T08:22:46;5.90;;;2.80;;
35743;SDS011;21867;52.012;4.324;2023-03-16T08:25:18;5.97;;;3.00;;
35743;SDS011;21867;52.012;4.324;2023-03-16T08:27:55;3.33;;;2.63;;
35743;SDS011;21867;52.012;4.324;2023-03-16T08:30:22;5.03;;;3.40;;
35743;SDS011;21867;52.012;4.324;2023-03-16T08:33:06;4.67;;;2.93;;
35743;SDS011;21867;52.012;4.324;2023-03-16T08:35:34;3.80;;;2.50;;
35743;SDS011;21867;52.012;4.324;2023-03-16T08:38:02;4.43;;;3.00;;
35743;SDS011;21867;52.012;4.324;2023-03-16T08:40:31;5.70;;;2.70;;
35743;SDS011;21867;52.012;4.324;2023-03-16T08:42:58;4.43;;;2.77;;
35743;SDS011;21867;52.012;4.324;2023-03-16T08:45:26;6.10;;;2.67;;
35743;SDS011;21867;52.012;4.324;2023-03-16T08:47:53;3.87;;;2.40;;
35743;SDS011;21867;52.012;4.324;2023-03-16T08:50:20;2.93;;;2.63;;
35743;SDS011;21867;52.012;4.324;2023-03-16T08:52:48;5.23;;;2.50;;
35743;SDS011;21867;52.012;4.324;2023-03-16T08:55:15;3.10;;;2.00;;
35743;SDS011;21867;52.012;4.324;2023-03-16T08:57:44;4.03;;;2.77;;
35743;SDS011;21867;52.012;4.324;2023-03-16T09:00:11;3.23;;;2.50;;
35743;SDS011;21867;52.012;4.324;2023-03-16T09:02:39;4.80;;;2.67;;
35743;SDS011;21867;52.012;4.324;2023-03-16T09:05:07;5.60;;;2.93;;
35743;SDS011;21867;52.012;4.324;2023-03-16T09:07:34;3.07;;;2.67;;
35743;SDS011;21867;52.012;4.324;2023-03-16T09:10:02;2.57;;;2.37;;
35743;SDS011;21867;52.012;4.324;2023-03-16T09:12:29;5.03;;;3.10;;
35743;SDS011;21867;52.012;4.324;2023-03-16T09:14:58;2.50;;;2.30;;
35743;SDS011;21867;52.012;4.324;2023-03-16T09:17:25;6.10;;;2.60;;
35743;SDS011;21867;52.012;4.324;2023-03-16T09:19:53;2.90;;;2.37;;
35743;SDS011;21867;52.012;4.324;2023-03-16T09:22:33;7.17;;;2.63;;
35743;SDS011;21867;52.012;4.324;2023-03-16T09:25:00;6.37;;;2.60;;
35743;SDS011;21867;52.012;4.324;2023-03-16T09:27:28;3.43;;;2.73;;
35743;SDS011;21867;52.012;4.324;2023-03-16T09:29:55;4.40;;;2.73;;
35743;SDS011;21867;52.012;4.324;2023-03-16T09:32:24;2.73;;;2.43;;
35743;SDS011;21867;52.012;4.324;2023-03-16T09:34:51;4.93;;;2.87;;
35743;SDS011;21867;52.012;4.324;2023-03-16T09:37:19;4.03;;;2.60;;
35743;SDS011;21867;52.012;4.324;2023-03-16T09:39:46;5.90;;;2.87;;
35743;SDS011;21867;52.012;4.324;2023-03-16T09:42:15;5.20;;;3.10;;
35743;SDS011;21867;52.012;4.324;2023-03-16T09:44:46;2.83;;;2.20;;
35743;SDS011;21867;52.012;4.324;2023-03-16T09:47:19;6.97;;;2.70;;
35743;SDS011;21867;52.012;4.324;2023-03-16T09:49:51;4.33;;;2.93;;
35743;SDS011;21867;52.012;4.324;2023-03-16T09:52:21;3.77;;;2.47;;
35743;SDS011;21867;52.012;4.324;2023-03-16T09:54:52;3.77;;;3.17;;
35743;SDS011;21867;52.012;4.324;2023-03-16T09:57:23;3.80;;;2.83;;
35743;SDS011;21867;52.012;4.324;2023-03-16T09:59:51;2.90;;;2.60;;
35743;SDS011;21867;52.012;4.324;2023-03-16T10:02:25;4.13;;;2.53;;
35743;SDS011;21867;52.012;4.324;2023-03-16T10:04:57;3.97;;;2.73;;
35743;SDS011;21867;52.012;4.324;2023-03-16T10:07:29;2.73;;;2.33;;
35743;SDS011;21867;52.012;4.324;2023-03-16T10:10:04;5.13;;;3.07;;
35743;SDS011;21867;52.012;4.324;2023-03-16T10:12:33;5.73;;;2.40;;
35743;SDS011;21867;52.012;4.324;2023-03-16T10:15:04;3.60;;;2.30;;
35743;SDS011;21867;52.012;4.324;2023-03-16T10:17:34;4.17;;;3.10;;
35743;SDS011;21867;52.012;4.324;2023-03-16T10:20:05;4.43;;;2.83;;
35743;SDS011;21867;52.012;4.324;2023-03-16T10:22:33;3.30;;;2.20;;
35743;SDS011;21867;52.012;4.324;2023-03-16T10:25:14;3.90;;;2.77;;
35743;SDS011;21867;52.012;4.324;2023-03-16T10:27:42;3.53;;;3.23;;
35743;SDS011;21867;52.012;4.324;2023-03-16T10:30:20;5.33;;;2.43;;
35743;SDS011;21867;52.012;4.324;2023-03-16T10:32:48;5.93;;;2.90;;
35743;SDS011;21867;52.012;4.324;2023-03-16T10:35:19;4.10;;;2.70;;
35743;SDS011;21867;52.012;4.324;2023-03-16T10:37:48;5.10;;;3.07;;
35743;SDS011;21867;52.012;4.324;2023-03-16T10:40:16;4.60;;;3.00;;
35743;SDS011;21867;52.012;4.324;2023-03-16T10:42:46;7.80;;;3.23;;
35743;SDS011;21867;52.012;4.324;2023-03-16T10:45:18;2.33;;;2.13;;
35743;SDS011;21867;52.012;4.324;2023-03-16T10:47:46;5.47;;;3.47;;
35743;SDS011;21867;52.012;4.324;2023-03-16T10:50:14;4.00;;;2.43;;
35743;SDS011;21867;52.012;4.324;2023-03-16T10:52:44;5.00;;;2.27;;
35743;SDS011;21867;52.012;4.324;2023-03-16T10:55:14;4.80;;;2.53;;
35743;SDS011;21867;52.012;4.324;2023-03-16T10:57:47;3.73;;;2.53;;
35743;SDS011;21867;52.012;4.324;2023-03-16T11:00:15;4.03;;;2.50;;
35743;SDS011;21867;52.012;4.324;2023-03-16T11:02:42;4.00;;;2.43;;
35743;SDS011;21867;52.012;4.324;2023-03-16T11:05:10;4.93;;;2.80;;
35743;SDS011;21867;52.012;4.324;2023-03-16T11:07:38;5.77;;;2.67;;
35743;SDS011;21867;52.012;4.324;2023-03-16T11:10:17;2.47;;;1.80;;
35743;SDS011;21867;52.012;4.324;2023-03-16T11:12:50;2.63;;;1.90;;
35743;SDS011;21867;52.012;4.324;2023-03-16T11:15:17;5.60;;;2.70;;
35743;SDS011;21867;52.012;4.324;2023-03-16T11:17:51;6.37;;;2.30;;
35743;SDS011;21867;52.012;4.324;2023-03-16T11:20:20;3.17;;;2.47;;
35743;SDS011;21867;52.012;4.324;2023-03-16T11:22:48;4.13;;;2.57;;
35743;SDS011;21867;52.012;4.324;2023-03-16T11:25:17;3.03;;;2.37;;
35743;SDS011;21867;52.012;4.324;2023-03-16T11:27:46;3.30;;;2.50;;
35743;SDS011;21867;52.012;4.324;2023-03-16T11:30:15;4.10;;;2.50;;
35743;SDS011;21867;52.012;4.324;2023-03-16T11:32:46;3.67;;;2.40;;
35743;SDS011;21867;52.012;4.324;2023-03-16T11:35:15;3.57;;;2.50;;
35743;SDS011;21867;52.012;4.324;2023-03-16T11:37:47;3.63;;;2.07;;
35743;SDS011;21867;52.012;4.324;2023-03-16T11:40:28;4.97;;;2.80;;
35743;SDS011;21867;52.012;4.324;2023-03-16T11:42:59;3.73;;;2.53;;
35743;SDS011;21867;52.012;4.324;2023-03-16T11:51:06;3.63;;;2.37;;
35743;SDS011;21867;52.012;4.324;2023-03-16T11:53:45;4.13;;;2.37;;
35743;SDS011;21867;52.012;4.324;2023-03-16T11:56:17;3.57;;;2.40;;
35743;SDS011;21867;52.012;4.324;2023-03-16T11:58:51;3.80;;;2.10;;
35743;SDS011;21867;52.012;4.324;2023-03-16T12:01:20;4.33;;;2.40;;
35743;SDS011;21867;52.012;4.324;2023-03-16T12:06:29;4.20;;;2.63;;
35743;SDS011;21867;52.012;4.324;2023-03-16T12:09:03;4.37;;;2.10;;
35743;SDS011;21867;52.012;4.324;2023-03-16T12:11:36;5.60;;;2.23;;
35743;SDS011;21867;52.012;4.324;2023-03-16T12:14:12;3.63;;;2.60;;
35743;SDS011;21867;52.012;4.324;2023-03-16T12:16:42;3.37;;;1.80;;
35743;SDS011;21867;52.012;4.324;2023-03-16T12:19:23;2.80;;;2.17;;
35743;SDS011;21867;52.012;4.324;2023-03-16T12:25:01;2.37;;;1.93;;
35743;SDS011;21867;52.012;4.324;2023-03-16T12:27:31;3.27;;;2.10;;
35743;SDS011;21867;52.012;4.324;2023-03-16T12:30:01;1.53;;;1.43;;
35743;SDS011;21867;52.012;4.324;2023-03-16T12:32:39;3.67;;;1.93;;
35743;SDS011;21867;52.012;4.324;2023-03-16T12:35:16;3.73;;;2.00;;
35743;SDS011;21867;52.012;4.324;2023-03-16T12:37:47;4.37;;;2.57;;
35743;SDS011;21867;52.012;4.324;2023-03-16T12:40:22;2.43;;;2.00;;
35743;SDS011;21867;52.012;4.324;2023-03-16T12:43:01;4.73;;;2.37;;
35743;SDS011;21867;52.012;4.324;2023-03-16T12:45:32;3.30;;;2.20;;
35743;SDS011;21867;52.012;4.324;2023-03-16T12:48:07;3.03;;;2.30;;
35743;SDS011;21867;52.012;4.324;2023-03-16T12:50:45;4.53;;;2.60;;
35743;SDS011;21867;52.012;4.324;2023-03-16T12:56:09;3.70;;;2.20;;
35743;SDS011;21867;52.012;4.324;2023-03-16T12:58:54;3.03;;;2.43;;
35743;SDS011;21867;52.012;4.324;2023-03-16T13:01:24;5.50;;;2.20;;
35743;SDS011;21867;52.012;4.324;2023-03-16T13:03:57;3.03;;;2.30;;
35743;SDS011;21867;52.012;4.324;2023-03-16T13:06:28;2.83;;;2.33;;
35743;SDS011;21867;52.012;4.324;2023-03-16T13:09:04;3.93;;;2.67;;
35743;SDS011;21867;52.012;4.324;2023-03-16T13:11:42;3.73;;;2.43;;
35743;SDS011;21867;52.012;4.324;2023-03-16T13:14:13;4.70;;;2.43;;
35743;SDS011;21867;52.012;4.324;2023-03-16T13:16:41;3.50;;;2.00;;
35743;SDS011;21867;52.012;4.324;2023-03-16T13:19:24;4.30;;;2.33;;
35743;SDS011;21867;52.012;4.324;2023-03-16T13:21:59;3.67;;;2.77;;
35743;SDS011;21867;52.012;4.324;2023-03-16T13:27:03;2.57;;;2.37;;
35743;SDS011;21867;52.012;4.324;2023-03-16T13:29:33;1.80;;;1.67;;
35743;SDS011;21867;52.012;4.324;2023-03-16T13:32:05;3.47;;;1.93;;
35743;SDS011;21867;52.012;4.324;2023-03-16T13:34:52;3.00;;;2.30;;
35743;SDS011;21867;52.012;4.324;2023-03-16T13:40:26;2.77;;;1.90;;
35743;SDS011;21867;52.012;4.324;2023-03-16T13:42:54;4.27;;;2.17;;
35743;SDS011;21867;52.012;4.324;2023-03-16T13:45:30;2.80;;;2.10;;
35743;SDS011;21867;52.012;4.324;2023-03-16T13:47:58;3.73;;;2.40;;
35743;SDS011;21867;52.012;4.324;2023-03-16T13:50:26;5.50;;;2.47;;
35743;SDS011;21867;52.012;4.324;2023-03-16T13:55:50;7.70;;;2.23;;
35743;SDS011;21867;52.012;4.324;2023-03-16T13:58:20;3.60;;;2.17;;
35743;SDS011;21867;52.012;4.324;2023-03-16T14:00:49;3.00;;;2.00;;
35743;SDS011;21867;52.012;4.324;2023-03-16T14:03:21;4.63;;;2.43;;
35743;SDS011;21867;52.012;4.324;2023-03-16T14:05:48;3.50;;;2.30;;
35743;SDS011;21867;52.012;4.324;2023-03-16T14:11:12;4.10;;;2.23;;
35743;SDS011;21867;52.012;4.324;2023-03-16T14:13:41;3.80;;;2.17;;
35743;SDS011;21867;52.012;4.324;2023-03-16T14:16:12;2.33;;;2.13;;
35743;SDS011;21867;52.012;4.324;2023-03-16T14:18:42;4.03;;;1.90;;
35743;SDS011;21867;52.012;4.324;2023-03-16T14:21:12;3.30;;;1.73;;
35743;SDS011;21867;52.012;4.324;2023-03-16T14:23:41;3.37;;;2.20;;
35743;SDS011;21867;52.012;4.324;2023-03-16T14:26:10;4.13;;;2.47;;
35743;SDS011;21867;52.012;4.324;2023-03-16T14:28:38;2.30;;;2.10;;
35743;SDS011;21867;52.012;4.324;2023-03-16T14:31:08;2.17;;;1.87;;
35743;SDS011;21867;52.012;4.324;2023-03-16T14:33:37;3.10;;;2.53;;
35743;SDS011;21867;52.012;4.324;2023-03-16T14:36:11;3.00;;;2.23;;
35743;SDS011;21867;52.012;4.324;2023-03-16T14:38:40;2.73;;;1.87;;
35743;SDS011;21867;52.012;4.324;2023-03-16T14:41:19;2.43;;;2.00;;
35743;SDS011;21867;52.012;4.324;2023-03-16T14:49:30;3.30;;;2.33;;
35743;SDS011;21867;52.012;4.324;2023-03-16T14:51:59;3.47;;;1.87;;
35743;SDS011;21867;52.012;4.324;2023-03-16T14:54:27;2.83;;;2.20;;
35743;SDS011;21867;52.012;4.324;2023-03-16T14:56:57;4.43;;;2.10;;
35743;SDS011;21867;52.012;4.324;2023-03-16T14:59:25;4.80;;;2.47;;
35743;SDS011;21867;52.012;4.324;2023-03-16T15:01:53;4.67;;;2.30;;
35743;SDS011;21867;52.012;4.324;2023-03-16T15:04:22;2.70;;;2.00;;
35743;SDS011;21867;52.012;4.324;2023-03-16T15:06:52;2.20;;;2.00;;
35743;SDS011;21867;52.012;4.324;2023-03-16T15:09:32;3.13;;;1.90;;
35743;SDS011;21867;52.012;4.324;2023-03-16T15:12:00;3.47;;;2.47;;
35743;SDS011;21867;52.012;4.324;2023-03-16T15:17:30;7.13;;;2.53;;
35743;SDS011;21867;52.012;4.324;2023-03-16T15:19:57;5.20;;;2.17;;
35743;SDS011;21867;52.012;4.324;2023-03-16T15:22:27;4.00;;;2.60;;
35743;SDS011;21867;52.012;4.324;2023-03-16T15:24:55;4.77;;;2.47;;
35743;SDS011;21867;52.012;4.324;2023-03-16T15:27:24;2.30;;;2.10;;
35743;SDS011;21867;52.012;4.324;2023-03-16T15:29:52;4.40;;;1.93;;
35743;SDS011;21867;52.012;4.324;2023-03-16T15:34:46;2.53;;;2.20;;
35743;SDS011;21867;52.012;4.324;2023-03-16T15:37:15;5.37;;;2.23;;
35743;SDS011;21867;52.012;4.324;2023-03-16T15:39:44;4.97;;;2.17;;
35743;SDS011;21867;52.012;4.324;2023-03-16T15:42:12;3.37;;;1.90;;
35743;SDS011;21867;52.012;4.324;2023-03-16T15:44:40;1.90;;;1.80;;
35743;SDS011;21867;52.012;4.324;2023-03-16T15:47:07;4.57;;;2.17;;
35743;SDS011;21867;52.012;4.324;2023-03-16T15:49:47;3.10;;;1.77;;
35743;SDS011;21867;52.012;4.324;2023-03-16T15:52:45;1.90;;;1.80;;
35743;SDS011;21867;52.012;4.324;2023-03-16T15:55:16;3.50;;;1.80;;
35743;SDS011;21867;52.012;4.324;2023-03-16T15:57:45;2.13;;;1.93;;
35743;SDS011;21867;52.012;4.324;2023-03-16T16:00:18;2.47;;;1.80;;
35743;SDS011;21867;52.012;4.324;2023-03-16T16:02:49;2.93;;;1.63;;
35743;SDS011;21867;52.012;4.324;2023-03-16T16:05:16;2.60;;;2.00;;
35743;SDS011;21867;52.012;4.324;2023-03-16T16:07:43;3.07;;;2.77;;
35743;SDS011;21867;52.012;4.324;2023-03-16T16:10:11;3.57;;;1.93;;
35743;SDS011;21867;52.012;4.324;2023-03-16T16:12:40;1.93;;;1.80;;
35743;SDS011;21867;52.012;4.324;2023-03-16T16:15:10;3.47;;;2.00;;
35743;SDS011;21867;52.012;4.324;2023-03-16T16:17:43;1.63;;;1.53;;
35743;SDS011;21867;52.012;4.324;2023-03-16T16:20:30;4.33;;;1.97;;